TimeMST,TemperatureF,Dew PointF,Humidity,Sea Level PressureIn,VisibilityMPH,Wind Direction,Wind SpeedMPH,Gust SpeedMPH,PrecipitationIn,Events,Conditions,WindDirDegrees,DateUTC
12:04 AM,32.0,32.0,100,30.01,0.8,South,4.6,-,0.00,,Overcast,180,2012-11-18 07:04:00
12:07 AM,32.0,30.2,93,30.02,1.0,South,3.5,-,0.00,,Overcast,170,2012-11-18 07:07:00
12:13 AM,32.0,30.2,93,30.01,3.0,SSE,4.6,-,0.00,,Overcast,160,2012-11-18 07:13:00
12:53 AM,33.8,32.0,93,30.01,8.0,SSE,6.9,-,N/A,,Overcast,150,2012-11-18 07:53:00
1:16 AM,33.8,32.0,93,29.99,6.0,South,10.4,-,N/A,,Mostly Cloudy,180,2012-11-18 08:16:00
1:53 AM,33.1,32.0,96,29.94,4.0,South,6.9,-,N/A,,Overcast,180,2012-11-18 08:53:00
2:53 AM,33.1,32.0,96,29.92,5.0,South,6.9,-,N/A,,Mostly Cloudy,190,2012-11-18 09:53:00
3:51 AM,32.0,30.2,93,29.97,9.0,SSW,9.2,-,N/A,,Partly Cloudy,200,2012-11-18 10:51:00
3:53 AM,32.0,30.9,96,29.91,9.0,SSW,9.2,-,N/A,,Partly Cloudy,200,2012-11-18 10:53:00
4:53 AM,30.9,28.9,92,29.92,10.0,South,5.8,-,N/A,,Clear,180,2012-11-18 11:53:00
5:53 AM,32.0,30.0,92,29.93,10.0,South,8.1,-,N/A,,Partly Cloudy,190,2012-11-18 12:53:00
6:53 AM,28.9,28.0,96,29.95,10.0,East,5.8,-,N/A,,Mostly Cloudy,90,2012-11-18 13:53:00
7:53 AM,32.0,30.0,92,29.95,10.0,SSE,4.6,-,N/A,,Mostly Cloudy,150,2012-11-18 14:53:00
8:48 AM,33.8,32.0,93,30.01,1.5,NW,13.8,18.4,0.00,Snow,Light Snow,320,2012-11-18 15:48:00
8:53 AM,33.1,32.0,96,29.99,0.8,NW,8.1,-,0.01,Snow,Light Snow,320,2012-11-18 15:53:00
9:04 AM,33.8,32.0,93,30.00,2.0,North,5.8,-,0.00,Snow,Light Snow,360,2012-11-18 16:04:00
9:12 AM,33.8,33.8,100,30.00,7.0,Calm,Calm,-,0.00,Rain,Light Rain,0,2012-11-18 16:12:00
9:26 AM,35.6,33.8,93,30.00,10.0,Calm,Calm,-,0.00,,Overcast,0,2012-11-18 16:26:00
9:53 AM,37.0,35.1,93,29.96,10.0,South,3.5,-,0.00,,Partly Cloudy,180,2012-11-18 16:53:00
10:53 AM,37.9,35.1,89,29.98,10.0,South,3.5,-,0.00,Rain,Light Rain,190,2012-11-18 17:53:00
11:02 AM,37.4,35.6,93,30.03,7.0,Variable,3.5,-,0.00,Rain,Light Rain,0,2012-11-18 18:02:00
11:39 AM,37.4,33.8,87,30.03,10.0,WSW,9.2,-,0.01,,Overcast,250,2012-11-18 18:39:00
11:53 AM,39.0,35.1,86,29.97,10.0,WSW,8.1,-,0.01,,Overcast,250,2012-11-18 18:53:00
12:42 PM,35.6,32.0,87,30.03,1.8,WNW,17.3,-,0.02,Snow,Light Snow,300,2012-11-18 19:42:00
12:49 PM,33.8,32.0,93,30.03,1.5,WNW,12.7,-,0.04,Snow,Light Snow,290,2012-11-18 19:49:00
12:53 PM,33.1,32.0,96,29.99,2.0,WNW,9.2,-,0.05,Snow,Light Snow,300,2012-11-18 19:53:00
1:01 PM,35.6,33.8,93,30.02,7.0,NW,6.9,-,0.00,Snow,Light Snow,310,2012-11-18 20:01:00
1:10 PM,37.4,35.6,93,30.01,10.0,NW,5.8,-,0.00,,Mostly Cloudy,310,2012-11-18 20:10:00
1:53 PM,41.0,36.0,82,29.95,10.0,NE,4.6,-,0.00,,Clear,40,2012-11-18 20:53:00
2:53 PM,39.0,34.0,82,29.98,10.0,East,3.5,-,N/A,,Overcast,80,2012-11-18 21:53:00
3:19 PM,39.2,35.6,87,30.05,9.0,Calm,Calm,-,0.00,Rain,Light Rain,0,2012-11-18 22:19:00
3:27 PM,39.2,33.8,81,30.05,6.0,North,8.1,-,0.00,Rain,Light Rain,360,2012-11-18 22:27:00
3:32 PM,35.6,33.8,93,30.05,1.8,NW,3.5,-,0.02,Rain,Heavy Rain,320,2012-11-18 22:32:00
3:43 PM,35.6,32.0,87,30.07,3.0,North,5.8,-,0.04,Rain,Light Rain,350,2012-11-18 22:43:00
3:53 PM,37.0,34.0,89,30.02,10.0,Calm,Calm,-,0.04,,Overcast,0,2012-11-18 22:53:00
4:27 PM,37.4,33.8,87,30.07,10.0,NNE,5.8,-,0.00,,Overcast,30,2012-11-18 23:27:00
4:41 PM,35.6,33.8,93,30.08,10.0,NE,8.1,-,0.00,,Mostly Cloudy,50,2012-11-18 23:41:00
4:53 PM,35.1,33.1,92,30.06,10.0,NE,10.4,-,0.00,,Mostly Cloudy,40,2012-11-18 23:53:00
5:01 PM,35.6,32.0,87,30.08,10.0,NE,10.4,-,N/A,,Mostly Cloudy,50,2012-11-19 00:01:00
5:31 PM,33.8,32.0,93,30.10,10.0,ENE,3.5,-,N/A,,Mostly Cloudy,60,2012-11-19 00:31:00
5:53 PM,33.1,30.9,92,30.08,10.0,ENE,5.8,-,N/A,,Mostly Cloudy,60,2012-11-19 00:53:00
6:00 PM,33.8,30.2,87,30.10,10.0,ENE,8.1,-,N/A,,Scattered Clouds,70,2012-11-19 01:00:00
6:53 PM,32.0,30.9,96,30.12,10.0,East,4.6,-,N/A,,Mostly Cloudy,80,2012-11-19 01:53:00
7:53 PM,30.9,28.9,92,30.11,10.0,WNW,4.6,-,N/A,,Mostly Cloudy,300,2012-11-19 02:53:00
8:14 PM,30.2,30.2,100,30.11,10.0,NW,4.6,-,N/A,,Overcast,310,2012-11-19 03:14:00
8:35 PM,30.2,30.2,100,30.12,10.0,Calm,Calm,-,N/A,,Overcast,0,2012-11-19 03:35:00
8:53 PM,30.9,28.9,92,30.11,10.0,West,3.5,-,N/A,,Overcast,260,2012-11-19 03:53:00
9:05 PM,30.2,28.4,93,30.12,10.0,Calm,Calm,-,N/A,,Overcast,0,2012-11-19 04:05:00
9:13 PM,30.2,28.4,93,30.12,10.0,Calm,Calm,-,N/A,,Overcast,0,2012-11-19 04:13:00
9:53 PM,32.0,30.0,92,30.09,10.0,NNW,3.5,-,N/A,,Overcast,340,2012-11-19 04:53:00
10:14 PM,33.8,30.2,87,30.15,2.5,Calm,Calm,-,0.00,Snow,Light Snow,0,2012-11-19 05:14:00
10:21 PM,32.0,30.2,93,30.15,1.2,Calm,Calm,-,0.00,Snow,Light Snow,0,2012-11-19 05:21:00
10:27 PM,32.0,30.2,93,30.15,3.0,SE,3.5,-,0.00,Snow,Light Snow,140,2012-11-19 05:27:00
10:34 PM,32.0,30.2,93,30.14,4.0,East,3.5,-,0.00,Snow,Light Snow,90,2012-11-19 05:34:00
10:53 PM,30.9,30.0,96,30.10,9.0,ENE,6.9,-,0.00,,Overcast,70,2012-11-19 05:53:00
11:08 PM,30.2,30.2,100,30.14,10.0,ENE,6.9,-,N/A,,Overcast,60,2012-11-19 06:08:00
11:32 PM,32.0,30.2,93,30.14,10.0,ENE,5.8,-,N/A,,Overcast,70,2012-11-19 06:32:00
11:53 PM,32.0,30.9,96,30.10,10.0,Calm,Calm,-,N/A,,Overcast,0,2012-11-19 06:53:00